createdAt,value
2023-05-21T00:02:11.734Z,100248.28
2023-05-21T00:04:57.830Z,100251.97
2023-05-21T00:10:52.708Z,100253.91
2023-05-21T00:16:55.296Z,100242.19
2023-05-21T00:19:42.906Z,100239.81
2023-05-21T00:22:28.883Z,100243.03
2023-05-21T00:25:15.076Z,100234.63
2023-05-21T00:28:07.837Z,100234.84
2023-05-21T00:31:01.324Z,100223.09
2023-05-21T00:36:50.132Z,100212.25
2023-05-21T00:42:57.062Z,100223.69
2023-05-21T00:45:49.653Z,100215.28
2023-05-21T00:52:01.343Z,100212.91
2023-05-21T00:54:54.132Z,100213.31
2023-05-21T00:57:45.911Z,100210.91
2023-05-21T01:00:40.537Z,100203.66
2023-05-21T01:03:38.392Z,100198.66
2023-05-21T01:06:34.515Z,100195.69
2023-05-21T01:12:43.999Z,100202.34
2023-05-21T01:15:38.230Z,100202.91
2023-05-21T01:18:35.049Z,100197.72
2023-05-21T01:21:30.211Z,100203.06
2023-05-21T01:24:24.974Z,100204.72
2023-05-21T01:27:18.224Z,100189.44
2023-05-21T01:33:35.868Z,100189.34
2023-05-21T01:40:22.095Z,100176.19
2023-05-21T01:43:15.289Z,100184.00
2023-05-21T01:46:08.734Z,100192.03
2023-05-21T01:49:01.710Z,100183.66
2023-05-21T01:51:55.310Z,100184.84
2023-05-21T01:54:54.388Z,100176.56
2023-05-21T01:57:48.082Z,100186.22
2023-05-21T02:00:40.856Z,100186.41
2023-05-21T02:03:34.595Z,100180.59
2023-05-21T02:06:28.116Z,100178.13
2023-05-21T02:09:20.923Z,100183.63
2023-05-21T02:12:51.160Z,100172.03
2023-05-21T02:15:44.896Z,100180.59
2023-05-21T02:18:39.361Z,100173.50
2023-05-21T02:21:32.000Z,100164.38
2023-05-21T02:24:18.833Z,100171.19
2023-05-21T02:27:13.614Z,100178.34
2023-05-21T02:30:07.806Z,100173.50
2023-05-21T02:33:02.761Z,100171.25
2023-05-21T02:35:55.736Z,100170.63
2023-05-21T02:38:46.553Z,100176.78
2023-05-21T02:41:38.916Z,100160.97
2023-05-21T02:44:31.997Z,100165.66
2023-05-21T02:47:25.495Z,100155.34
2023-05-21T02:50:22.274Z,100161.50
2023-05-21T02:56:33.216Z,100147.34
2023-05-21T03:02:42.329Z,100145.63
2023-05-21T03:08:48.664Z,100144.16
2023-05-21T03:11:41.234Z,100141.50
2023-05-21T03:14:33.718Z,100145.97
2023-05-21T03:17:27.056Z,100138.50
2023-05-21T03:20:20.024Z,100140.75
2023-05-21T03:23:16.374Z,100136.94
2023-05-21T03:26:11.454Z,100133.91
2023-05-21T03:29:03.862Z,100133.91
2023-05-21T03:31:57.648Z,100145.75
2023-05-21T03:34:50.966Z,100139.09
2023-05-21T03:37:45.045Z,100142.59
2023-05-21T03:40:37.700Z,100141.94
2023-05-21T03:43:32.371Z,100144.81
2023-05-21T03:46:26.185Z,100146.16
2023-05-21T03:49:25.748Z,100145.06
2023-05-21T03:52:20.703Z,100145.16
2023-05-21T03:58:47.338Z,100146.72
2023-05-21T04:01:39.948Z,100142.84
2023-05-21T04:07:50.407Z,100137.03
2023-05-21T04:10:43.035Z,100141.38
2023-05-21T04:16:49.866Z,100152.88
2023-05-21T04:22:55.328Z,100155.19
2023-05-21T04:25:50.543Z,100154.50
2023-05-21T04:28:45.744Z,100160.41
2023-05-21T04:31:40.137Z,100168.34
2023-05-21T04:34:34.649Z,100161.91
2023-05-21T04:37:28.069Z,100167.81
2023-05-21T04:40:24.258Z,100168.72
2023-05-21T04:43:17.218Z,100169.66
2023-05-21T04:46:10.819Z,100171.97
2023-05-21T04:49:04.426Z,100169.75
2023-05-21T04:51:59.033Z,100172.09
2023-05-21T04:54:53.928Z,100175.06
2023-05-21T04:57:46.828Z,100166.44
2023-05-21T05:00:42.200Z,100161.38
2023-05-21T05:03:34.661Z,100170.69
2023-05-21T05:06:27.080Z,100162.44
2023-05-21T05:09:24.987Z,100159.75
2023-05-21T05:12:18.009Z,100162.25
2023-05-21T05:15:11.654Z,100157.47
2023-05-21T05:17:58.390Z,100147.75
2023-05-21T05:20:50.649Z,100148.59
2023-05-21T05:23:44.236Z,100158.28
2023-05-21T05:26:38.628Z,100147.94
2023-05-21T05:29:30.905Z,100138.16
2023-05-21T05:32:24.530Z,100146.59
2023-05-21T05:35:17.526Z,100140.56
2023-05-21T05:41:30.839Z,100141.06
2023-05-21T05:44:25.324Z,100141.69
2023-05-21T05:47:17.745Z,100137.75
2023-05-21T05:50:09.992Z,100144.53
2023-05-21T05:53:02.797Z,100134.91
2023-05-21T05:55:56.016Z,100133.38
2023-05-21T05:58:48.952Z,100138.47
2023-05-21T06:01:44.015Z,100137.25
2023-05-21T06:07:53.271Z,100138.81
2023-05-21T06:14:00.736Z,100137.22
2023-05-21T06:20:10.134Z,100123.00
2023-05-21T06:23:03.135Z,100130.22
2023-05-21T06:25:55.898Z,100125.78
2023-05-21T06:28:48.918Z,100133.44
2023-05-21T06:31:41.863Z,100134.09
2023-05-21T06:34:35.087Z,100124.47
2023-05-21T06:37:29.378Z,100124.72
2023-05-21T06:40:22.732Z,100129.44
2023-05-21T06:43:18.947Z,100128.41
2023-05-21T06:46:42.803Z,100129.09
2023-05-21T06:49:35.987Z,100114.91
2023-05-21T06:52:31.631Z,100128.50
2023-05-21T06:55:25.133Z,100125.84
2023-05-21T06:58:39.608Z,100130.97
2023-05-21T07:01:32.438Z,100129.56
2023-05-21T07:04:26.512Z,100128.19
2023-05-21T07:07:18.703Z,100137.25
2023-05-21T07:10:13.171Z,100133.63
2023-05-21T07:13:31.201Z,100122.28
2023-05-21T07:16:24.170Z,100135.28
2023-05-21T07:19:16.897Z,100141.81
2023-05-21T07:25:19.575Z,100132.75
2023-05-21T07:28:11.856Z,100131.31
2023-05-21T07:31:14.813Z,100129.13
2023-05-21T07:34:12.186Z,100130.09
2023-05-21T07:40:10.060Z,100128.19
2023-05-21T07:43:04.387Z,100120.13
2023-05-21T07:45:58.545Z,100115.25
2023-05-21T07:48:52.750Z,100117.69
2023-05-21T07:51:46.735Z,100125.78
2023-05-21T07:55:12.903Z,100118.88
2023-05-21T07:58:08.016Z,100113.66
2023-05-21T08:01:26.008Z,100123.16
2023-05-21T08:04:19.264Z,100108.56
2023-05-21T08:07:13.635Z,100112.91
2023-05-21T08:10:01.679Z,100111.28
2023-05-21T08:12:49.452Z,100117.88
2023-05-21T08:15:37.696Z,100121.09
2023-05-21T08:21:41.306Z,100122.91
2023-05-21T08:24:27.519Z,100117.22
2023-05-21T08:27:16.002Z,100116.91
2023-05-21T08:30:02.062Z,100118.38
2023-05-21T08:32:49.909Z,100122.13
2023-05-21T08:35:39.160Z,100113.00
2023-05-21T08:41:54.590Z,100115.06
2023-05-21T08:47:57.596Z,100118.50
2023-05-21T08:53:58.408Z,100116.91
2023-05-21T08:56:46.855Z,100119.06
2023-05-21T08:59:35.859Z,100122.25
2023-05-21T09:02:25.028Z,100111.72
2023-05-21T09:05:13.305Z,100113.88
2023-05-21T09:08:05.325Z,100107.84
2023-05-21T09:10:57.398Z,100106.97
2023-05-21T09:13:50.200Z,100107.94
2023-05-21T09:16:43.799Z,100117.06
2023-05-21T09:19:32.008Z,100106.75
2023-05-21T09:22:24.345Z,100106.47
2023-05-21T09:28:27.272Z,100114.28
2023-05-21T09:31:13.149Z,100110.09
2023-05-21T09:33:59.559Z,100111.28
2023-05-21T09:36:46.940Z,100114.78
2023-05-21T09:39:34.844Z,100108.34
2023-05-21T09:42:23.381Z,100105.66
2023-05-21T09:48:34.702Z,100099.91
2023-05-21T09:51:22.230Z,100099.34
2023-05-21T09:54:08.048Z,100093.59
2023-05-21T09:56:55.742Z,100103.16
2023-05-21T09:59:42.465Z,100102.84
2023-05-21T10:02:29.985Z,100096.38
2023-05-21T10:08:36.985Z,100091.34
2023-05-21T10:14:36.972Z,100093.63
2023-05-21T10:17:24.227Z,100084.41
2023-05-21T10:23:23.949Z,100074.28
2023-05-21T10:26:10.347Z,100070.56
2023-05-21T10:28:58.403Z,100069.16
2023-05-21T10:31:49.208Z,100064.22
2023-05-21T10:34:35.962Z,100067.66
2023-05-21T10:37:24.518Z,100064.06
2023-05-21T10:40:11.612Z,100061.34
2023-05-21T10:46:33.079Z,100059.06
2023-05-21T10:49:31.298Z,100050.16
2023-05-21T10:52:26.135Z,100046.75
2023-05-21T10:58:40.484Z,100049.28
2023-05-21T11:01:28.674Z,100044.72
2023-05-21T11:04:15.695Z,100038.91
2023-05-21T11:07:03.083Z,100038.16
2023-05-21T11:13:17.180Z,100040.78
2023-05-21T11:16:15.671Z,100036.94
2023-05-21T11:22:26.478Z,100033.38
2023-05-21T11:25:19.682Z,100037.25
2023-05-21T11:28:11.947Z,100032.44
2023-05-21T11:31:24.095Z,100029.41
2023-05-21T11:34:20.109Z,100025.78
2023-05-21T11:40:36.682Z,100022.63
2023-05-21T11:43:29.903Z,100027.56
2023-05-21T11:46:22.635Z,100020.03
2023-05-21T11:49:16.470Z,100021.88
2023-05-21T11:52:10.499Z,100019.81
2023-05-21T11:55:02.829Z,100015.34
2023-05-21T12:01:45.011Z,100013.66
2023-05-21T12:04:52.984Z,100005.47
2023-05-21T12:07:48.432Z,100015.75
2023-05-21T12:14:01.931Z,100005.84
2023-05-21T12:16:56.619Z,100005.66
2023-05-21T12:19:50.600Z,100006.25
2023-05-21T12:22:44.076Z,100002.44
2023-05-21T12:26:14.266Z,100000.25
2023-05-21T12:29:07.328Z,100000.09
2023-05-21T12:32:37.293Z,99999.88
2023-05-21T12:35:31.746Z,100010.41
2023-05-21T12:41:27.892Z,100007.81
2023-05-21T12:44:20.921Z,99997.53
2023-05-21T12:47:15.783Z,100006.13
2023-05-21T12:50:11.609Z,99999.38
2023-05-21T12:53:05.551Z,99997.81
2023-05-21T12:56:08.798Z,99997.06
2023-05-21T12:59:00.658Z,99993.22
2023-05-21T13:05:06.627Z,99996.47
2023-05-21T13:07:58.950Z,99997.00
2023-05-21T13:10:53.689Z,99992.34
2023-05-21T13:13:46.321Z,99995.66
2023-05-21T13:16:38.939Z,99996.16
2023-05-21T13:19:32.057Z,99983.44
2023-05-21T13:22:50.398Z,99992.13
2023-05-21T13:25:43.092Z,99986.72
2023-05-21T13:28:37.528Z,99978.22
2023-05-21T13:31:30.003Z,99985.22
2023-05-21T13:34:23.193Z,99972.56
2023-05-21T13:37:16.293Z,99976.31
2023-05-21T13:40:11.908Z,99970.91
2023-05-21T13:43:05.291Z,99974.59
2023-05-21T13:46:22.165Z,99966.94
2023-05-21T13:49:10.179Z,99977.19
2023-05-21T13:55:11.867Z,99971.50
2023-05-21T13:58:04.331Z,99961.16
2023-05-21T14:00:57.211Z,99969.72
2023-05-21T14:03:49.960Z,99961.88
2023-05-21T14:06:44.559Z,99967.22
2023-05-21T14:09:31.303Z,99964.72
2023-05-21T14:12:23.739Z,99962.72
2023-05-21T14:15:16.209Z,99971.06
2023-05-21T14:18:12.119Z,99976.19
2023-05-21T14:21:04.994Z,99968.38
2023-05-21T14:23:59.641Z,99968.03
2023-05-21T14:30:09.539Z,99963.19
2023-05-21T14:33:02.110Z,99964.31
2023-05-21T14:35:54.927Z,99958.16
2023-05-21T14:38:48.280Z,99960.06
2023-05-21T14:41:42.663Z,99962.31
2023-05-21T14:44:45.550Z,99962.13
2023-05-21T14:47:32.291Z,99957.16
2023-05-21T14:53:32.209Z,99959.63
2023-05-21T14:59:43.052Z,99962.06
2023-05-21T15:02:36.180Z,99963.53
2023-05-21T15:05:29.998Z,99952.94
2023-05-21T15:08:23.114Z,99951.91
2023-05-21T15:11:16.283Z,99945.63
2023-05-21T15:14:09.132Z,99937.78
2023-05-21T15:17:03.332Z,99943.00
2023-05-21T15:19:56.146Z,99937.16
2023-05-21T15:22:49.167Z,99936.22
2023-05-21T15:25:41.903Z,99923.19
2023-05-21T15:28:28.836Z,99929.00
2023-05-21T15:31:22.017Z,99925.72
2023-05-21T15:34:17.843Z,99919.19
2023-05-21T15:37:09.988Z,99911.72
2023-05-21T15:40:03.110Z,99910.34
2023-05-21T15:42:56.109Z,99905.81
2023-05-21T15:46:26.370Z,99898.56
2023-05-21T15:49:20.608Z,99902.00
2023-05-21T15:55:16.425Z,99884.53
2023-05-21T16:01:22.097Z,99885.78
2023-05-21T16:07:31.218Z,99879.16
2023-05-21T16:10:25.651Z,99888.59
2023-05-21T16:13:18.193Z,99884.78
2023-05-21T16:16:11.160Z,99879.22
2023-05-21T16:19:03.850Z,99884.59
2023-05-21T16:22:01.202Z,99878.13
2023-05-21T16:24:54.635Z,99876.22
2023-05-21T16:27:48.415Z,99876.50
2023-05-21T16:30:41.139Z,99872.28
2023-05-21T16:33:34.359Z,99879.09
2023-05-21T16:36:27.044Z,99873.25
2023-05-21T16:42:50.122Z,99870.41
2023-05-21T16:46:06.098Z,99878.22
2023-05-21T16:48:54.012Z,99879.78
2023-05-21T16:55:34.675Z,99875.84
2023-05-21T16:58:29.652Z,99875.75
2023-05-21T17:01:21.740Z,99882.28
2023-05-21T17:04:13.985Z,99881.03
2023-05-21T17:07:07.026Z,99877.34
2023-05-21T17:10:00.254Z,99879.84
2023-05-21T17:16:10.687Z,99885.13
2023-05-21T17:19:03.209Z,99885.78
2023-05-21T17:21:52.142Z,99888.19
2023-05-21T17:24:45.072Z,99882.97
2023-05-21T17:30:54.352Z,99876.41
2023-05-21T17:33:48.624Z,99876.41
2023-05-21T17:36:41.181Z,99871.34
2023-05-21T17:39:33.865Z,99878.66
2023-05-21T17:42:26.940Z,99875.97
2023-05-21T17:45:19.912Z,99877.47
2023-05-21T17:48:13.193Z,99879.38
2023-05-21T17:51:07.422Z,99882.00
2023-05-21T17:53:59.983Z,99884.75
2023-05-21T17:56:52.857Z,99883.59
2023-05-21T17:59:46.142Z,99886.91
2023-05-21T18:02:39.332Z,99888.78
2023-05-21T18:05:49.370Z,99889.13
2023-05-21T18:08:40.643Z,99885.31
2023-05-21T18:11:33.100Z,99884.75
2023-05-21T18:14:26.281Z,99878.84
2023-05-21T18:17:19.356Z,99873.47
2023-05-21T18:20:13.514Z,99879.47
2023-05-21T18:23:06.069Z,99875.91
2023-05-21T18:26:00.360Z,99871.84
2023-05-21T18:28:53.401Z,99871.06
2023-05-21T18:31:46.309Z,99884.66
2023-05-21T18:34:41.476Z,99884.38
2023-05-21T18:37:34.149Z,99882.66
2023-05-21T18:40:30.565Z,99876.72
2023-05-21T18:43:24.354Z,99885.72
2023-05-21T18:46:17.326Z,99875.91
2023-05-21T18:49:09.787Z,99876.19
2023-05-21T18:52:02.023Z,99883.25
2023-05-21T18:54:55.251Z,99881.50
2023-05-21T18:57:48.128Z,99890.25
2023-05-21T19:00:43.259Z,99892.06
2023-05-21T19:06:48.472Z,99900.41
2023-05-21T19:09:41.234Z,99898.25
2023-05-21T19:12:35.987Z,99896.03
2023-05-21T19:15:29.144Z,99891.91
2023-05-21T19:18:29.961Z,99901.91
2023-05-21T19:21:22.741Z,99907.59
2023-05-21T19:24:15.440Z,99912.56
2023-05-21T19:27:07.709Z,99909.69
2023-05-21T19:29:54.248Z,99906.16
2023-05-21T19:32:47.617Z,99905.25
2023-05-21T19:35:43.153Z,99908.03
2023-05-21T19:38:36.459Z,99915.44
2023-05-21T19:41:29.119Z,99912.41
2023-05-21T19:44:22.068Z,99913.50
2023-05-21T19:47:14.918Z,99915.09
2023-05-21T19:50:09.288Z,99914.84
2023-05-21T19:53:03.478Z,99921.38
2023-05-21T19:55:56.441Z,99923.81
2023-05-21T19:58:48.998Z,99916.03
2023-05-21T20:01:44.096Z,99917.63
2023-05-21T20:04:37.002Z,99925.34
2023-05-21T20:07:30.379Z,99916.94
2023-05-21T20:10:24.414Z,99926.31
2023-05-21T20:13:31.577Z,99926.75
2023-05-21T20:16:24.341Z,99924.63
2023-05-21T20:22:42.298Z,99919.91
2023-05-21T20:29:01.390Z,99924.53
2023-05-21T20:31:54.148Z,99926.41
2023-05-21T20:38:02.012Z,99923.13
2023-05-21T20:40:55.831Z,99922.09
2023-05-21T20:43:48.350Z,99924.19
2023-05-21T20:49:54.785Z,99921.91
2023-05-21T20:52:47.539Z,99926.28
2023-05-21T20:55:44.366Z,99923.19
2023-05-21T20:58:39.762Z,99926.91
2023-05-21T21:01:32.736Z,99920.28
2023-05-21T21:04:25.565Z,99918.03
2023-05-21T21:07:19.971Z,99918.56
2023-05-21T21:10:13.323Z,99916.16
2023-05-21T21:16:27.365Z,99920.78
2023-05-21T21:22:30.525Z,99919.94
2023-05-21T21:28:39.260Z,99916.25
2023-05-21T21:31:32.387Z,99906.88
2023-05-21T21:34:25.410Z,99913.63
2023-05-21T21:37:18.353Z,99912.72
2023-05-21T21:40:14.123Z,99909.34
2023-05-21T21:43:08.555Z,99907.31
2023-05-21T21:46:00.939Z,99902.19
2023-05-21T21:52:15.205Z,99900.09
2023-05-21T21:58:35.402Z,99902.31
2023-05-21T22:01:28.282Z,99908.53
2023-05-21T22:04:20.930Z,99905.69
2023-05-21T22:07:18.061Z,99908.88
2023-05-21T22:10:11.558Z,99906.88
2023-05-21T22:13:04.720Z,99910.53
2023-05-21T22:15:58.530Z,99907.97
2023-05-21T22:18:51.156Z,99903.75
2023-05-21T22:21:46.517Z,99905.63
2023-05-21T22:27:55.408Z,99911.19
2023-05-21T22:34:05.726Z,99893.47
2023-05-21T22:36:58.071Z,99896.19
2023-05-21T22:39:45.758Z,99894.59
2023-05-21T22:42:38.131Z,99887.56
2023-05-21T22:45:31.483Z,99889.56
2023-05-21T22:48:23.951Z,99888.34
2023-05-21T22:51:18.447Z,99889.56
2023-05-21T22:54:11.130Z,99889.88
2023-05-21T22:57:04.191Z,99883.41
2023-05-21T22:59:56.867Z,99889.31
2023-05-21T23:02:53.055Z,99891.81
2023-05-21T23:05:47.286Z,99895.72
2023-05-21T23:08:41.235Z,99885.38
2023-05-21T23:12:11.351Z,99882.41
2023-05-21T23:15:05.296Z,99873.63
2023-05-21T23:17:58.285Z,99873.53
2023-05-21T23:20:51.314Z,99881.28
2023-05-21T23:23:45.630Z,99882.56
2023-05-21T23:26:42.714Z,99876.72
2023-05-21T23:29:35.307Z,99875.03
2023-05-21T23:32:27.980Z,99869.56
2023-05-21T23:35:21.088Z,99880.25
2023-05-21T23:38:13.961Z,99880.59
2023-05-21T23:41:08.415Z,99877.25
2023-05-21T23:44:01.244Z,99870.13
2023-05-21T23:50:15.776Z,99873.16
2023-05-21T23:56:16.384Z,99866.41
2023-05-21T23:59:09.362Z,99867.13
